Cedarfalls, Iowa
Current Conditions -  °F | °C
As of 4:54 AM on Friday 24 Oct 2014 (Local Time) from KALO Reporting Station
Moderate Fog Moderate Fog  
Wind Chill: 47°   Ceiling: 200
Heat Index: 47°   Visibility: 0.25mi
Dew Point: 47°   Wind: 3mph
Humidity: 100%   Direction: 170°S
Pressure: 30.01"   Gusts: NA
Location:  42.5035°N, 92.4936°W
Report Text: KALO 240954Z AUTO 17003KT 1/4SM R12/0800V1000FT FG VV002 08/08 A3001 RMK AO2 SLP164 T00830083 $
Loading
Personal Weather Stations






























Interactive Weather Map
Tropical Storm Tracking
New forecast layout! Learn more

10-Day Weather Forecast

Advertisements
Track Severe Weather on mobile